Arlington, Wisconsin
Current Conditions -  °F | °C
As of 3:53 PM on Monday 22 Dec 2014 (Local Time) from KMSN Reporting Station
Light Rain Light Rain  
Wind Chill: 27°   Ceiling: 700
Heat Index: 36°   Visibility: 2.5mi
Dew Point: 33°   Wind: 14mph
Humidity: 89%   Direction: 90°E
Pressure: 29.66"   Gusts: NA
Location:  43.34°N, 89.38°W
Report Text: KMSN 222153Z 09012KT 2 1/2SM -RA BR OVC007 02/01 A2966 RMK AO2 SFC VIS 3 CIG 006V010 SLP051 P0003 T00220006
Loading
Personal Weather Stations






























Interactive Weather Map New forecast layout! Learn more

10-Day Weather Forecast

Advertisements
Track Severe Weather on mobile